createdAt,value
2023-01-08T00:01:09.530Z,72.96
2023-01-08T00:03:39.875Z,73.03
2023-01-08T00:06:11.255Z,72.75
2023-01-08T00:08:38.330Z,73.06
2023-01-08T00:11:05.828Z,73.38
2023-01-08T00:13:32.813Z,73.04
2023-01-08T00:16:04.553Z,73.25
2023-01-08T00:18:32.075Z,73.40
2023-01-08T00:21:01.042Z,72.98
2023-01-08T00:23:28.220Z,72.32
2023-01-08T00:25:55.228Z,72.28
2023-01-08T00:28:22.135Z,73.13
2023-01-08T00:30:49.241Z,72.12
2023-01-08T00:33:16.321Z,72.86
2023-01-08T00:35:43.377Z,72.79
2023-01-08T00:38:12.024Z,72.80
2023-01-08T00:40:38.897Z,72.76
2023-01-08T00:43:07.254Z,73.08
2023-01-08T00:45:34.678Z,73.46
2023-01-08T00:48:01.590Z,72.92
2023-01-08T00:50:28.653Z,73.25
2023-01-08T00:52:55.495Z,73.02
2023-01-08T00:55:23.649Z,73.91
2023-01-08T00:57:50.391Z,73.39
2023-01-08T01:00:17.771Z,73.37
2023-01-08T01:02:45.670Z,73.67
2023-01-08T01:05:14.071Z,73.23
2023-01-08T01:07:41.333Z,74.58
2023-01-08T01:10:09.869Z,74.16
2023-01-08T01:12:39.257Z,74.03
2023-01-08T01:15:09.397Z,73.41
2023-01-08T01:17:39.505Z,73.81
2023-01-08T01:20:10.047Z,73.14
2023-01-08T01:22:37.724Z,73.50
2023-01-08T01:25:06.329Z,73.31
2023-01-08T01:27:33.325Z,73.80
2023-01-08T01:30:02.591Z,73.05
2023-01-08T01:32:29.543Z,73.55
2023-01-08T01:34:56.575Z,72.74
2023-01-08T01:37:23.340Z,72.86
2023-01-08T01:39:50.186Z,73.02
2023-01-08T01:42:20.033Z,72.98
2023-01-08T01:44:47.890Z,73.08
2023-01-08T01:47:25.614Z,72.86
2023-01-08T01:50:02.243Z,73.35
2023-01-08T01:52:35.096Z,73.37
2023-01-08T01:55:07.751Z,72.88
2023-01-08T01:57:34.659Z,73.11
2023-01-08T02:00:08.078Z,73.31
2023-01-08T02:02:43.894Z,73.68
2023-01-08T02:05:10.976Z,73.76
2023-01-08T02:07:50.756Z,73.69
2023-01-08T02:10:32.052Z,74.00
2023-01-08T02:13:08.232Z,74.00
2023-01-08T02:15:47.604Z,74.41
2023-01-08T02:18:24.029Z,73.06
2023-01-08T02:21:01.419Z,72.99
2023-01-08T02:23:42.408Z,73.12
2023-01-08T02:26:21.924Z,73.48
2023-01-08T02:28:57.629Z,72.77
2023-01-08T02:31:29.482Z,74.11
2023-01-08T02:33:56.755Z,73.66
2023-01-08T02:36:35.588Z,73.06
2023-01-08T02:39:34.370Z,72.85
2023-01-08T02:42:19.704Z,72.86
2023-01-08T02:45:01.576Z,72.67
2023-01-08T02:47:35.248Z,72.64
2023-01-08T02:50:15.330Z,72.81
2023-01-08T02:52:53.857Z,72.46
2023-01-08T02:55:25.180Z,72.57
2023-01-08T02:57:53.992Z,72.31
2023-01-08T03:00:22.265Z,72.36
2023-01-08T03:02:58.140Z,72.52
2023-01-08T03:05:28.470Z,72.49
2023-01-08T03:07:56.072Z,72.30
2023-01-08T03:10:28.733Z,72.63
2023-01-08T03:13:05.287Z,72.87
2023-01-08T03:15:42.600Z,72.92
2023-01-08T03:18:18.287Z,73.14
2023-01-08T03:20:48.589Z,73.25
2023-01-08T03:23:19.560Z,72.95
2023-01-08T03:25:47.730Z,72.50
2023-01-08T03:28:22.930Z,72.79
2023-01-08T03:30:53.293Z,72.72
2023-01-08T03:33:24.010Z,72.31
2023-01-08T03:35:57.003Z,72.59
2023-01-08T03:38:29.351Z,73.06
2023-01-08T03:41:04.480Z,71.88
2023-01-08T03:43:33.164Z,71.25
2023-01-08T03:46:07.851Z,70.98
2023-01-08T03:48:37.763Z,72.09
2023-01-08T03:51:08.906Z,71.27
2023-01-08T03:53:36.077Z,71.47
2023-01-08T03:56:03.027Z,71.39
2023-01-08T03:58:29.900Z,72.18
2023-01-08T04:00:58.048Z,71.77
2023-01-08T04:03:25.944Z,70.86
2023-01-08T04:05:52.762Z,71.78
2023-01-08T04:08:19.523Z,71.60
2023-01-08T04:10:46.607Z,71.97
2023-01-08T04:13:13.583Z,71.45
2023-01-08T04:15:40.445Z,72.35
2023-01-08T04:18:08.665Z,72.60
2023-01-08T04:20:35.425Z,71.97
2023-01-08T04:23:02.233Z,71.81
2023-01-08T04:25:29.067Z,71.11
2023-01-08T04:27:55.927Z,71.79
2023-01-08T04:30:22.782Z,71.56
2023-01-08T04:32:49.745Z,71.27
2023-01-08T04:35:18.163Z,71.78
2023-01-08T04:37:45.323Z,72.04
2023-01-08T04:40:12.294Z,71.77
2023-01-08T04:42:39.340Z,72.36
2023-01-08T04:45:08.259Z,71.98
2023-01-08T04:47:35.314Z,72.01
2023-01-08T04:50:02.199Z,72.42
2023-01-08T04:52:30.595Z,73.00
2023-01-08T04:54:57.419Z,73.81
2023-01-08T04:57:24.636Z,74.62
2023-01-08T04:59:51.438Z,75.55
2023-01-08T05:02:19.481Z,75.86
2023-01-08T05:04:48.032Z,76.53
2023-01-08T05:07:15.101Z,76.37
2023-01-08T05:09:43.256Z,76.59
2023-01-08T05:12:10.037Z,76.29
2023-01-08T05:14:36.850Z,76.76
2023-01-08T05:17:03.746Z,75.97
2023-01-08T05:19:30.590Z,75.14
2023-01-08T05:21:57.674Z,76.38
2023-01-08T05:24:24.595Z,76.81
2023-01-08T05:26:52.814Z,76.09
2023-01-08T05:29:19.831Z,76.45
2023-01-08T05:31:46.751Z,77.23
2023-01-08T05:34:13.623Z,75.78
2023-01-08T05:36:40.526Z,76.62
2023-01-08T05:39:07.351Z,76.12
2023-01-08T05:41:34.250Z,76.71
2023-01-08T05:44:02.711Z,77.49
2023-01-08T05:46:29.685Z,77.66
2023-01-08T05:48:57.962Z,78.11
2023-01-08T05:51:24.835Z,77.77
2023-01-08T05:53:51.658Z,78.61
2023-01-08T05:56:18.691Z,78.14
2023-01-08T05:58:45.532Z,78.24
2023-01-08T06:01:15.670Z,78.57
2023-01-08T06:03:42.938Z,77.07
2023-01-08T06:06:11.687Z,77.97
2023-01-08T06:08:39.232Z,77.17
2023-01-08T06:11:08.867Z,77.19
2023-01-08T06:13:36.422Z,76.21
2023-01-08T06:16:04.353Z,77.13
2023-01-08T06:18:32.608Z,77.14
2023-01-08T06:20:59.621Z,76.63
2023-01-08T06:23:26.504Z,76.72
2023-01-08T06:25:54.196Z,76.93
2023-01-08T06:28:21.899Z,76.72
2023-01-08T06:30:48.980Z,76.64
2023-01-08T06:33:16.887Z,76.15
2023-01-08T06:35:45.309Z,76.19
2023-01-08T06:38:12.437Z,75.76
2023-01-08T06:40:39.248Z,75.43
2023-01-08T06:43:06.275Z,75.31
2023-01-08T06:45:33.321Z,75.14
2023-01-08T06:48:01.500Z,74.91
2023-01-08T06:50:28.380Z,74.96
2023-01-08T06:52:57.069Z,75.44
2023-01-08T06:55:24.802Z,75.66
2023-01-08T06:57:54.615Z,75.40
2023-01-08T07:00:22.131Z,75.39
2023-01-08T07:02:49.573Z,75.81
2023-01-08T07:05:16.729Z,76.49
2023-01-08T07:07:44.381Z,76.52
2023-01-08T07:10:12.685Z,76.54
2023-01-08T07:12:39.745Z,76.39
2023-01-08T07:15:08.199Z,76.36
2023-01-08T07:17:35.267Z,76.64
2023-01-08T07:20:02.174Z,76.45
2023-01-08T07:22:29.077Z,76.33
2023-01-08T07:24:55.914Z,76.68
2023-01-08T07:27:24.434Z,76.59
2023-01-08T07:29:51.148Z,76.75
2023-01-08T07:32:18.144Z,76.92
2023-01-08T07:34:44.951Z,77.83
2023-01-08T07:37:12.226Z,77.75
2023-01-08T07:39:39.043Z,78.42
2023-01-08T07:42:06.233Z,78.32
2023-01-08T07:44:34.978Z,79.40
2023-01-08T07:47:01.819Z,80.16
2023-01-08T07:49:28.592Z,80.19
2023-01-08T07:51:55.381Z,80.79
2023-01-08T07:54:22.285Z,81.58
2023-01-08T07:56:49.053Z,81.27
2023-01-08T07:59:15.796Z,81.50
2023-01-08T08:01:44.081Z,81.26
2023-01-08T08:04:10.911Z,81.41
2023-01-08T08:06:37.765Z,81.41
2023-01-08T08:09:05.049Z,82.12
2023-01-08T08:11:31.947Z,81.52
2023-01-08T08:13:58.715Z,81.20
2023-01-08T08:16:25.626Z,80.43
2023-01-08T08:18:53.993Z,79.66
2023-01-08T08:21:20.987Z,79.69
2023-01-08T08:23:47.737Z,80.13
2023-01-08T08:26:14.720Z,80.21
2023-01-08T08:28:41.721Z,79.55
2023-01-08T08:31:08.706Z,79.48
2023-01-08T08:33:35.623Z,79.72
2023-01-08T08:36:04.462Z,79.74
2023-01-08T08:38:31.491Z,79.29
2023-01-08T08:40:58.319Z,79.46
2023-01-08T08:43:25.181Z,79.24
2023-01-08T08:45:52.163Z,79.72
2023-01-08T08:48:19.056Z,80.35
2023-01-08T08:50:46.078Z,79.91
2023-01-08T08:53:14.267Z,80.64
2023-01-08T08:55:41.124Z,78.64
2023-01-08T08:58:11.790Z,79.32
2023-01-08T09:00:40.489Z,80.02
2023-01-08T09:03:12.189Z,80.13
2023-01-08T09:05:39.148Z,79.51
2023-01-08T09:08:06.763Z,79.80
2023-01-08T09:10:37.065Z,79.58
2023-01-08T09:13:04.211Z,80.52
2023-01-08T09:15:31.049Z,79.43
2023-01-08T09:17:58.472Z,79.47
2023-01-08T09:20:27.180Z,79.63
2023-01-08T09:22:54.290Z,80.14
2023-01-08T09:25:21.355Z,79.72
2023-01-08T09:27:49.701Z,79.18
2023-01-08T09:30:16.676Z,79.05
2023-01-08T09:32:43.747Z,78.27
2023-01-08T09:35:10.483Z,78.25
2023-01-08T09:37:37.494Z,78.50
2023-01-08T09:40:05.641Z,78.88
2023-01-08T09:42:34.244Z,78.49
2023-01-08T09:45:05.104Z,78.34
2023-01-08T09:47:38.536Z,78.23
2023-01-08T09:50:13.613Z,78.49
2023-01-08T09:52:43.475Z,78.30
2023-01-08T09:55:14.247Z,78.35
2023-01-08T09:57:41.543Z,77.55
2023-01-08T10:00:16.466Z,78.47
2023-01-08T10:02:44.466Z,77.19
2023-01-08T10:05:14.883Z,78.59
2023-01-08T10:07:42.131Z,77.57
2023-01-08T10:10:19.621Z,77.09
2023-01-08T10:12:48.787Z,77.13
2023-01-08T10:15:20.392Z,77.66
2023-01-08T10:17:56.341Z,77.07
2023-01-08T10:20:25.759Z,77.60
2023-01-08T10:22:54.528Z,77.34
2023-01-08T10:25:24.754Z,77.21
2023-01-08T10:27:57.101Z,76.95
2023-01-08T10:30:37.450Z,77.30
2023-01-08T10:33:09.998Z,77.71
2023-01-08T10:35:41.334Z,77.54
2023-01-08T10:38:27.566Z,78.49
2023-01-08T10:40:56.273Z,77.89
2023-01-08T10:43:31.172Z,77.98
2023-01-08T10:46:04.807Z,78.42
2023-01-08T10:48:36.945Z,78.38
2023-01-08T10:51:16.879Z,78.90
2023-01-08T10:54:00.418Z,78.07
2023-01-08T10:57:00.623Z,78.33
2023-01-08T10:59:55.027Z,78.99
2023-01-08T11:02:40.930Z,78.93
2023-01-08T11:05:15.529Z,79.16
2023-01-08T11:08:09.641Z,78.22
2023-01-08T11:10:55.534Z,78.21
2023-01-08T11:13:28.518Z,78.24
2023-01-08T11:16:10.471Z,78.83
2023-01-08T11:19:01.964Z,77.98
2023-01-08T11:21:57.664Z,77.92
2023-01-08T11:24:46.234Z,77.77
2023-01-08T11:27:34.837Z,77.64
2023-01-08T11:30:24.242Z,77.31
2023-01-08T11:33:05.064Z,77.14
2023-01-08T11:35:55.815Z,76.85
2023-01-08T11:38:32.783Z,77.54
2023-01-08T11:41:35.713Z,77.07
2023-01-08T11:44:32.944Z,76.91
2023-01-08T11:47:45.073Z,77.18
2023-01-08T11:50:31.971Z,77.04
2023-01-08T11:53:31.265Z,76.63
2023-01-08T11:56:21.066Z,77.23
2023-01-08T11:59:28.856Z,77.69
2023-01-08T12:02:20.019Z,78.04
2023-01-08T12:05:42.714Z,78.08
2023-01-08T12:08:29.811Z,77.89
2023-01-08T12:11:16.736Z,78.40
2023-01-08T12:14:22.403Z,76.98
2023-01-08T12:17:44.416Z,78.50
2023-01-08T12:20:36.641Z,77.04
2023-01-08T12:23:55.928Z,77.38
2023-01-08T12:26:53.237Z,76.77
2023-01-08T12:30:03.226Z,76.37
2023-01-08T12:32:48.337Z,75.68
2023-01-08T12:35:37.041Z,76.10
2023-01-08T12:38:25.711Z,74.86
2023-01-08T12:41:00.751Z,73.62
2023-01-08T12:43:32.993Z,73.12
2023-01-08T12:46:03.634Z,74.00
2023-01-08T12:48:35.074Z,74.14
2023-01-08T12:51:10.576Z,73.99
2023-01-08T12:53:53.900Z,72.90
2023-01-08T12:56:35.699Z,72.54
2023-01-08T12:59:37.486Z,72.50
2023-01-08T13:02:36.437Z,73.30
2023-01-08T13:05:30.017Z,73.27
2023-01-08T13:08:00.250Z,72.70
2023-01-08T13:10:36.668Z,72.98
2023-01-08T13:13:07.881Z,72.99
2023-01-08T13:15:36.166Z,73.49
2023-01-08T13:18:16.820Z,72.82
2023-01-08T13:20:57.155Z,71.63
2023-01-08T13:23:27.769Z,72.10
2023-01-08T13:25:57.313Z,72.94
2023-01-08T13:28:42.636Z,72.79
2023-01-08T13:31:26.395Z,72.00
2023-01-08T13:33:54.333Z,73.40
2023-01-08T13:36:25.364Z,72.92
2023-01-08T13:39:21.908Z,72.29
2023-01-08T13:42:03.276Z,71.62
2023-01-08T13:44:35.354Z,72.46
2023-01-08T13:47:07.941Z,72.45
2023-01-08T13:49:42.384Z,72.69
2023-01-08T13:52:31.298Z,70.63
2023-01-08T13:55:01.799Z,71.35
2023-01-08T13:57:39.211Z,70.77
2023-01-08T14:00:18.973Z,71.72
2023-01-08T14:02:46.461Z,70.65
2023-01-08T14:05:24.364Z,71.40
2023-01-08T14:07:51.658Z,71.08
2023-01-08T14:10:19.904Z,71.18
2023-01-08T14:12:48.427Z,71.71
2023-01-08T14:15:29.413Z,71.98
2023-01-08T14:17:57.625Z,70.97
2023-01-08T14:20:32.461Z,69.77
2023-01-08T14:23:01.232Z,69.11
2023-01-08T14:25:29.657Z,71.08
2023-01-08T14:28:02.672Z,70.81
2023-01-08T14:30:32.029Z,70.95
2023-01-08T14:33:01.071Z,71.51
2023-01-08T14:35:35.073Z,72.16
2023-01-08T14:38:03.334Z,70.23
2023-01-08T14:40:35.680Z,71.49
2023-01-08T14:43:11.157Z,70.97
2023-01-08T14:45:47.394Z,70.58
2023-01-08T14:48:22.624Z,70.29
2023-01-08T14:51:04.466Z,70.22
2023-01-08T14:53:36.300Z,70.83
2023-01-08T14:56:06.627Z,71.22
2023-01-08T14:58:38.528Z,71.54
2023-01-08T15:01:15.996Z,71.13
2023-01-08T15:03:45.615Z,71.07
2023-01-08T15:06:24.583Z,69.98
2023-01-08T15:08:51.810Z,69.80
2023-01-08T15:11:23.643Z,70.09
2023-01-08T15:13:57.225Z,70.35
2023-01-08T15:16:33.752Z,69.71
2023-01-08T15:19:07.285Z,69.85
2023-01-08T15:21:35.667Z,69.64
2023-01-08T15:24:06.336Z,70.65
2023-01-08T15:26:33.683Z,70.44
2023-01-08T15:29:05.236Z,69.83
2023-01-08T15:31:46.717Z,70.17
2023-01-08T15:34:14.151Z,70.13
2023-01-08T15:36:41.042Z,69.98
2023-01-08T15:39:07.854Z,70.00
2023-01-08T15:41:36.988Z,70.35
2023-01-08T15:44:04.330Z,69.72
2023-01-08T15:46:32.538Z,70.33
2023-01-08T15:48:59.379Z,70.80
2023-01-08T15:51:29.914Z,69.63
2023-01-08T15:53:56.863Z,70.11
2023-01-08T15:56:24.019Z,70.73
2023-01-08T15:58:50.802Z,70.19
2023-01-08T16:01:18.046Z,70.72
2023-01-08T16:03:46.657Z,70.59
2023-01-08T16:06:13.406Z,70.74
2023-01-08T16:08:40.213Z,70.27
2023-01-08T16:11:07.049Z,70.17
2023-01-08T16:13:34.027Z,70.65
2023-01-08T16:16:06.973Z,70.57
2023-01-08T16:18:33.799Z,70.38
2023-01-08T16:21:02.503Z,70.54
2023-01-08T16:23:29.619Z,70.55
2023-01-08T16:25:56.729Z,71.23
2023-01-08T16:28:23.714Z,71.24
2023-01-08T16:30:50.940Z,71.45
2023-01-08T16:33:17.771Z,70.95
2023-01-08T16:35:44.580Z,70.77
2023-01-08T16:38:13.852Z,70.93
2023-01-08T16:40:40.983Z,70.39
2023-01-08T16:43:11.505Z,70.75
2023-01-08T16:45:46.007Z,70.56
2023-01-08T16:48:13.643Z,70.74
2023-01-08T16:50:40.687Z,71.40
2023-01-08T16:53:08.072Z,72.34
2023-01-08T16:55:38.159Z,72.52
2023-01-08T16:58:05.711Z,72.08
2023-01-08T17:00:33.058Z,71.68
2023-01-08T17:03:01.497Z,71.94
2023-01-08T17:05:29.148Z,71.61
2023-01-08T17:07:56.561Z,72.35
2023-01-08T17:10:25.946Z,71.60
2023-01-08T17:12:54.188Z,72.17
2023-01-08T17:15:21.137Z,71.80
2023-01-08T17:17:47.925Z,72.17
2023-01-08T17:20:15.224Z,71.70
2023-01-08T17:22:42.379Z,71.85
2023-01-08T17:25:09.748Z,71.84
2023-01-08T17:27:37.004Z,72.02
2023-01-08T17:30:08.350Z,71.49
2023-01-08T17:32:35.591Z,72.22
2023-01-08T17:35:02.444Z,71.98
2023-01-08T17:37:30.377Z,72.62
2023-01-08T17:39:57.350Z,72.93
2023-01-08T17:42:24.349Z,72.88
2023-01-08T17:44:51.633Z,73.09
2023-01-08T17:47:19.817Z,73.08
2023-01-08T17:49:49.217Z,72.86
2023-01-08T17:52:16.067Z,73.37
2023-01-08T17:54:42.922Z,73.04
2023-01-08T17:57:10.433Z,73.92
2023-01-08T17:59:37.264Z,74.01
2023-01-08T18:02:04.508Z,74.16
2023-01-08T18:04:32.901Z,74.84
2023-01-08T18:06:59.979Z,74.16
2023-01-08T18:09:26.869Z,75.20
2023-01-08T18:11:53.906Z,75.55
2023-01-08T18:14:21.511Z,75.23
2023-01-08T18:16:52.276Z,74.68
2023-01-08T18:19:21.198Z,73.95
2023-01-08T18:21:51.255Z,73.57
2023-01-08T18:24:21.316Z,73.23
2023-01-08T18:26:54.872Z,73.06
2023-01-08T18:29:24.363Z,73.35
2023-01-08T18:31:54.738Z,73.51
2023-01-08T18:34:23.541Z,73.86
2023-01-08T18:36:57.005Z,73.80
2023-01-08T18:39:25.105Z,73.46
2023-01-08T18:41:52.103Z,73.97
2023-01-08T18:44:19.107Z,73.75
2023-01-08T18:46:47.998Z,74.04
2023-01-08T18:49:15.499Z,74.54
2023-01-08T18:51:42.872Z,74.77
2023-01-08T18:54:11.032Z,75.05
2023-01-08T18:56:38.268Z,74.78
2023-01-08T18:59:06.818Z,75.64
2023-01-08T19:01:35.268Z,75.45
2023-01-08T19:04:03.136Z,76.35
2023-01-08T19:06:30.004Z,76.41
2023-01-08T19:08:58.194Z,76.65
2023-01-08T19:11:26.631Z,76.14
2023-01-08T19:13:54.915Z,76.43
2023-01-08T19:16:21.858Z,76.46
2023-01-08T19:18:49.225Z,76.32
2023-01-08T19:21:16.216Z,75.85
2023-01-08T19:23:43.127Z,76.01
2023-01-08T19:26:10.739Z,76.02
2023-01-08T19:28:38.897Z,75.75
2023-01-08T19:31:06.218Z,76.27
2023-01-08T19:33:33.051Z,75.90
2023-01-08T19:36:01.315Z,75.81
2023-01-08T19:38:28.661Z,75.52
2023-01-08T19:40:57.730Z,76.19
2023-01-08T19:43:24.875Z,75.88
2023-01-08T19:45:53.164Z,75.46
2023-01-08T19:48:20.113Z,75.36
2023-01-08T19:50:47.207Z,74.80
2023-01-08T19:53:14.714Z,75.19
2023-01-08T19:55:41.594Z,74.46
2023-01-08T19:58:08.578Z,74.30
2023-01-08T20:00:35.354Z,74.54
2023-01-08T20:03:04.233Z,75.67
2023-01-08T20:05:31.118Z,75.82
2023-01-08T20:07:58.316Z,75.75
2023-01-08T20:10:25.194Z,74.71
2023-01-08T20:12:52.238Z,75.18
2023-01-08T20:15:19.086Z,76.06
2023-01-08T20:17:46.151Z,76.39
2023-01-08T20:20:14.403Z,76.46
2023-01-08T20:22:41.231Z,77.06
2023-01-08T20:25:08.865Z,77.66
2023-01-08T20:27:37.455Z,77.92
2023-01-08T20:30:05.339Z,78.52
2023-01-08T20:32:32.610Z,79.53
2023-01-08T20:34:59.736Z,80.10
2023-01-08T20:37:27.983Z,80.46
2023-01-08T20:39:55.500Z,81.11
2023-01-08T20:42:33.428Z,81.27
2023-01-08T20:45:01.120Z,81.64
2023-01-08T20:47:27.937Z,82.29
2023-01-08T20:49:54.915Z,82.92
2023-01-08T20:52:21.733Z,83.88
2023-01-08T20:54:51.081Z,85.36
2023-01-08T20:57:17.991Z,86.79
2023-01-08T20:59:45.010Z,87.52
2023-01-08T21:02:11.996Z,88.29
2023-01-08T21:04:39.152Z,88.30
2023-01-08T21:07:05.965Z,88.42
2023-01-08T21:09:32.881Z,88.09
2023-01-08T21:12:01.357Z,88.00
2023-01-08T21:14:28.186Z,87.36
2023-01-08T21:16:55.136Z,87.53
2023-01-08T21:19:22.062Z,87.14
2023-01-08T21:21:49.242Z,87.50
2023-01-08T21:24:16.068Z,87.43
2023-01-08T21:26:45.718Z,88.08
2023-01-08T21:29:14.890Z,87.94
2023-01-08T21:31:41.692Z,88.24
2023-01-08T21:34:09.846Z,87.91
2023-01-08T21:36:37.437Z,87.97
2023-01-08T21:39:05.001Z,88.60
2023-01-08T21:41:31.814Z,88.22
2023-01-08T21:43:59.437Z,88.41
2023-01-08T21:46:28.311Z,88.16
2023-01-08T21:48:55.279Z,88.09
2023-01-08T21:51:22.122Z,87.81
2023-01-08T21:53:49.120Z,87.98
2023-01-08T21:56:16.414Z,87.94
2023-01-08T21:58:43.366Z,88.24
2023-01-08T22:01:10.471Z,87.99
2023-01-08T22:03:38.978Z,87.93
2023-01-08T22:06:07.084Z,88.13
2023-01-08T22:08:34.461Z,89.13
2023-01-08T22:11:06.974Z,89.48
2023-01-08T22:13:35.165Z,89.56
2023-01-08T22:16:04.563Z,90.11
2023-01-08T22:18:32.220Z,90.70
2023-01-08T22:21:01.912Z,91.41
2023-01-08T22:23:29.756Z,91.94
2023-01-08T22:25:56.752Z,92.53
2023-01-08T22:28:24.608Z,92.91
2023-01-08T22:30:52.398Z,93.63
2023-01-08T22:33:19.229Z,94.05
2023-01-08T22:35:46.222Z,93.97
2023-01-08T22:38:14.448Z,94.56
2023-01-08T22:40:41.264Z,93.64
2023-01-08T22:43:08.082Z,94.51
2023-01-08T22:45:34.956Z,94.52
2023-01-08T22:48:01.875Z,94.23
2023-01-08T22:50:28.680Z,94.59
2023-01-08T22:52:55.850Z,94.13
2023-01-08T22:55:24.020Z,94.49
2023-01-08T22:57:50.803Z,94.27
2023-01-08T23:00:18.812Z,95.09
2023-01-08T23:02:46.009Z,94.98
2023-01-08T23:05:12.980Z,95.76
2023-01-08T23:07:39.933Z,96.13
2023-01-08T23:10:07.688Z,95.94
2023-01-08T23:12:36.035Z,95.78
2023-01-08T23:15:03.433Z,96.20
2023-01-08T23:17:30.323Z,95.69
2023-01-08T23:19:57.291Z,95.87
2023-01-08T23:22:24.318Z,96.32
2023-01-08T23:24:51.432Z,96.54
2023-01-08T23:27:18.521Z,97.17
2023-01-08T23:29:46.633Z,96.79
2023-01-08T23:32:14.141Z,96.71
2023-01-08T23:34:41.255Z,96.77
2023-01-08T23:37:08.085Z,96.14
2023-01-08T23:39:34.963Z,96.75
2023-01-08T23:42:01.783Z,96.96
2023-01-08T23:44:28.649Z,96.76
2023-01-08T23:46:56.836Z,96.97
2023-01-08T23:49:23.969Z,97.33
2023-01-08T23:51:50.870Z,97.20
2023-01-08T23:54:17.799Z,97.70
2023-01-08T23:56:45.011Z,97.97
2023-01-08T23:59:12.191Z,97.75
